Terminal Aerodrome Forecast
Issued by NWS Wilmington, OH

Home | Current Version | Previous Version | Text Only | Print | Product List | Glossary On
Versions: 1 2 3 4 5 6 7 8 9 10 11 12 13 14 15 16 17 18 19
000
FTUS41 KILN 220523
TAFDAY
TAF
KDAY 220523Z 2206/2306 VRB03KT P6SM SCT150
      TEMPO 2209/2213 5SM BR SKC
     FM221500 07004KT P6SM SCT040
     FM222300 00000KT P6SM SKC=

USA.gov is the U.S. government's official web portal to all federal, state and local government web resources and services.